Time;durP1;ratioP1;P1;durP2;ratioP2;P2;SDS_P1;SDS_P2;PMS_P1;PMS_P2;Temp;Humidity;BMP_temperature;BMP_pressure;BME280_temperature;BME280_humidity;BME280_pressure;Samples;Min_cycle;Max_cycle;Signal;HPM_P1;HPM_P2
2022/11/09 15:20:27;;;;;;;4.05;1.88;;;12.60;99.90;;;;;;5026234;28;20307;-46
2022/11/09 15:23:05;;;;;;;4.32;2.05;;;12.60;99.90;;;;;;5043527;28;20025;-44
2022/11/09 15:25:51;;;;;;;3.78;2.22;;;12.60;99.90;;;;;;5020454;28;20018;-45
2022/11/09 15:28:25;;;;;;;3.47;1.63;;;12.70;99.90;;;;;;5023800;28;20033;-44
2022/11/09 15:30:54;;;;;;;5.95;2.10;;;12.70;99.90;;;;;;5023844;28;21143;-47
2022/11/09 15:33:19;;;;;;;9.77;2.80;;;12.80;99.90;;;;;;5023225;28;20499;-45
2022/11/09 15:36:16;;;;;;;6.18;1.98;;;12.80;99.90;;;;;;5023669;28;20053;-45
2022/11/09 15:38:44;;;;;;;3.10;1.70;;;12.80;99.90;;;;;;5026976;28;20038;-45
2022/11/09 15:41:17;;;;;;;4.90;1.77;;;12.80;99.90;;;;;;5023598;28;20037;-45
2022/11/09 15:43:43;;;;;;;6.30;1.70;;;12.80;99.90;;;;;;5023753;28;20358;-45
2022/11/09 15:46:13;;;;;;;5.25;2.10;;;12.80;99.90;;;;;;5022412;28;20030;-45
2022/11/09 15:48:39;;;;;;;3.65;1.90;;;12.80;99.90;;;;;;5023311;28;20078;-46
2022/11/09 15:51:04;;;;;;;5.00;2.20;;;12.80;99.90;;;;;;5028395;28;20025;-45
2022/11/09 15:53:31;;;;;;;5.60;1.77;;;12.70;99.90;;;;;;5029401;27;20041;-44
2022/11/09 15:55:57;;;;;;;5.25;2.15;;;12.70;99.90;;;;;;5020047;28;20397;-45
2022/11/09 15:58:22;;;;;;;3.90;2.03;;;12.70;99.90;;;;;;5023428;28;20030;-45
2022/11/09 16:00:48;;;;;;;6.55;1.92;;;12.60;99.90;;;;;;5023618;28;20037;-45
2022/11/09 16:03:16;;;;;;;5.43;2.30;;;12.60;99.90;;;;;;5021479;28;20018;-45
2022/11/09 16:05:41;;;;;;;2.75;1.70;;;12.50;99.90;;;;;;5023338;28;20026;-45
2022/11/09 16:08:07;;;;;;;3.72;1.88;;;12.50;99.90;;;;;;5023901;28;20083;-45
2022/11/09 16:10:36;;;;;;;4.40;2.03;;;12.50;99.90;;;;;;5127501;28;20037;-45
2022/11/09 16:13:02;;;;;;;5.30;2.28;;;12.50;99.90;;;;;;5074159;28;20566;-45
2022/11/09 16:15:29;;;;;;;4.53;1.95;;;12.40;99.90;;;;;;5022844;28;20097;-47
2022/11/09 16:17:55;;;;;;;6.32;2.03;;;12.40;99.90;;;;;;5021356;28;20025;-46
2022/11/09 16:20:20;;;;;;;4.22;1.45;;;12.40;99.90;;;;;;5022040;28;20355;-44
2022/11/09 16:22:47;;;;;;;4.63;2.17;;;12.30;99.90;;;;;;5030280;28;20384;-45
2022/11/09 16:25:13;;;;;;;5.88;2.00;;;12.30;99.90;;;;;;5023300;28;20623;-45
2022/11/09 16:27:39;;;;;;;4.50;1.83;;;12.30;99.90;;;;;;5022141;28;20026;-44
2022/11/09 16:30:07;;;;;;;5.03;2.08;;;12.20;99.90;;;;;;5019209;28;20466;-45
2022/11/09 16:32:33;;;;;;;5.28;2.33;;;12.20;99.90;;;;;;5008288;28;20025;-44
2022/11/09 16:34:59;;;;;;;4.93;2.00;;;12.10;99.90;;;;;;5009516;28;20042;-45
2022/11/09 16:37:27;;;;;;;2.42;1.50;;;12.10;99.90;;;;;;5007656;28;20029;-44
2022/11/09 16:39:53;;;;;;;9.38;2.03;;;12.10;99.90;;;;;;5020464;28;20040;-45
2022/11/09 16:42:19;;;;;;;11.43;2.20;;;12.10;99.90;;;;;;5111674;28;20042;-44
2022/11/09 16:44:47;;;;;;;9.80;2.53;;;12.10;99.90;;;;;;5113064;28;20033;-44
2022/11/09 16:47:16;;;;;;;4.45;1.85;;;12.10;99.90;;;;;;5112074;28;20530;-45
2022/11/09 16:49:41;;;;;;;3.65;1.63;;;12.00;99.90;;;;;;5112033;28;20031;-45
2022/11/09 16:52:08;;;;;;;5.60;1.83;;;12.00;99.90;;;;;;5070702;28;20045;-44
2022/11/09 16:54:34;;;;;;;3.25;1.88;;;12.00;99.90;;;;;;5008132;28;20022;-44
2022/11/09 16:57:00;;;;;;;4.20;2.15;;;11.90;99.90;;;;;;5008280;28;20030;-45
2022/11/09 16:59:26;;;;;;;5.32;2.05;;;12.00;99.90;;;;;;5008065;28;20478;-45
2022/11/09 17:01:57;;;;;;;2.53;2.00;;;12.00;99.90;;;;;;5007886;28;20026;-44
2022/11/09 17:04:22;;;;;;;;;;;12.00;99.90;;;;;;5006947;28;20029;-44
2022/11/09 17:06:49;;;;;;;5.95;2.15;;;11.90;99.90;;;;;;5005483;28;19910;-44
2022/11/09 17:09:16;;;;;;;8.10;2.53;;;11.90;99.90;;;;;;5019561;28;20034;-44
2022/11/09 17:11:42;;;;;;;8.77;2.13;;;11.90;99.90;;;;;;5109551;28;20024;-45
2022/11/09 17:14:08;;;;;;;7.43;2.13;;;11.90;99.90;;;;;;5060974;28;20082;-44
2022/11/09 17:16:33;;;;;;;8.52;2.45;;;11.90;99.90;;;;;;5006367;28;20071;-44
2022/11/09 17:18:59;;;;;;;7.15;2.20;;;11.90;99.90;;;;;;5007177;28;20452;-44
2022/11/09 17:21:26;;;;;;;5.10;1.95;;;11.90;99.90;;;;;;5007243;28;20032;-45
2022/11/09 17:23:53;;;;;;;4.75;2.03;;;11.90;99.90;;;;;;5006653;28;20117;-45
2022/11/09 17:26:20;;;;;;;4.05;2.53;;;11.90;99.90;;;;;;5007749;28;20033;-46
2022/11/09 17:28:46;;;;;;;9.18;2.63;;;11.80;99.90;;;;;;5007207;28;20068;-45
2022/11/09 17:31:15;;;;;;;7.32;2.30;;;11.90;99.90;;;;;;5008433;28;20402;-48
2022/11/09 17:33:40;;;;;;;3.38;1.88;;;11.90;99.90;;;;;;5005329;28;20163;-45
2022/11/09 17:36:08;;;;;;;3.88;1.70;;;11.90;99.90;;;;;;5003995;28;20482;-46
2022/11/09 17:38:34;;;;;;;8.55;2.00;;;11.90;99.90;;;;;;5007902;28;20026;-47
2022/11/09 17:41:11;;;;;;;6.30;2.65;;;11.90;99.90;;;;;;5009480;28;20386;-48
2022/11/09 17:43:38;;;;;;;5.00;2.28;;;11.90;99.90;;;;;;5006167;28;20075;-48
2022/11/09 17:46:07;;;;;;;5.03;2.45;;;11.80;99.90;;;;;;5005925;28;20020;-46
2022/11/09 17:48:34;;;;;;;7.00;2.40;;;11.80;99.90;;;;;;5008039;28;20624;-47
2022/11/09 17:50:59;;;;;;;4.63;1.90;;;11.80;99.90;;;;;;5007085;28;20050;-45
2022/11/09 17:53:25;;;;;;;5.35;2.03;;;11.80;99.90;;;;;;5008061;28;20099;-47
2022/11/09 17:55:52;;;;;;;5.07;2.00;;;11.80;99.90;;;;;;5005697;28;20030;-47
2022/11/09 17:58:18;;;;;;;6.68;2.28;;;11.90;99.90;;;;;;5014405;28;20037;-48
2022/11/09 18:00:44;;;;;;;11.25;2.58;;;11.90;99.90;;;;;;5006704;28;20049;-49
2022/11/09 18:03:09;;;;;;;7.60;2.10;;;11.90;99.90;;;;;;5022829;28;20022;-47
2022/11/09 18:05:39;;;;;;;5.38;2.10;;;12.00;99.90;;;;;;5013873;28;20044;-48
2022/11/09 18:08:07;;;;;;;2.95;2.00;;;12.00;99.90;;;;;;5017311;28;20385;-48
2022/11/09 18:10:33;;;;;;;15.07;2.85;;;12.00;99.90;;;;;;5011645;28;20014;-49
2022/11/09 18:12:59;;;;;;;6.30;2.30;;;12.10;99.90;;;;;;5005632;28;20026;-50
2022/11/09 18:15:24;;;;;;;5.78;2.20;;;12.10;99.90;;;;;;5022670;28;20030;-46
2022/11/09 18:17:50;;;;;;;5.53;2.30;;;12.10;99.90;;;;;;5007881;28;20045;-50
2022/11/09 18:20:16;;;;;;;5.63;1.90;;;12.00;99.90;;;;;;5017140;28;20030;-45
2022/11/09 18:22:41;;;;;;;6.25;1.92;;;12.00;99.90;;;;;;5009473;28;20045;-48
2022/11/09 18:25:07;;;;;;;6.63;2.10;;;12.00;99.90;;;;;;5005913;28;20238;-49
2022/11/09 18:27:33;;;;;;;8.38;2.35;;;12.00;99.90;;;;;;5007899;28;20025;-49
2022/11/09 18:30:01;;;;;;;2.40;1.58;;;12.00;99.90;;;;;;5017779;28;20040;-48
2022/11/09 18:32:26;;;;;;;5.40;2.22;;;12.00;99.90;;;;;;5004961;28;20447;-49
2022/11/09 18:34:52;;;;;;;9.65;2.25;;;12.00;99.90;;;;;;5008034;28;20049;-46
2022/11/09 18:37:17;;;;;;;6.78;3.10;;;12.00;99.90;;;;;;5022256;28;20154;-48
2022/11/09 18:39:43;;;;;;;9.40;2.17;;;12.00;99.90;;;;;;5109666;28;20014;-47
2022/11/09 18:42:08;;;;;;;8.63;2.10;;;11.90;99.90;;;;;;5104062;28;20028;-46
2022/11/09 18:44:34;;;;;;;4.28;1.90;;;11.90;99.90;;;;;;5110463;28;20020;-45
2022/11/09 18:47:00;;;;;;;8.82;1.90;;;11.90;99.90;;;;;;5108583;28;20028;-46
2022/11/09 18:49:25;;;;;;;3.88;1.60;;;11.90;99.90;;;;;;5109233;28;20028;-46
2022/11/09 18:51:51;;;;;;;5.18;1.92;;;11.90;99.90;;;;;;5068081;28;20022;-47
2022/11/09 18:54:17;;;;;;;6.97;2.00;;;12.00;99.90;;;;;;5015467;28;20029;-49
2022/11/09 18:56:42;;;;;;;11.02;2.10;;;12.10;99.90;;;;;;5006777;28;20484;-47
2022/11/09 18:59:11;;;;;;;3.83;1.95;;;12.10;99.90;;;;;;5077160;28;20030;-48
2022/11/09 19:01:38;;;;;;;6.97;1.67;;;12.10;99.90;;;;;;5045419;28;20021;-46
2022/11/09 19:04:04;;;;;;;3.60;1.85;;;12.10;99.90;;;;;;5044720;28;20094;-45
2022/11/09 19:06:30;;;;;;;7.75;1.95;;;12.10;99.90;;;;;;5011493;28;20057;-46
2022/11/09 19:11:40;;;;;;;4.97;2.10;;;12.10;99.90;;;;;;5016284;28;20040;-50
2022/11/09 19:14:06;;;;;;;4.03;1.67;;;12.10;99.90;;;;;;5011008;28;20117;-47
2022/11/09 19:16:31;;;;;;;4.63;2.10;;;12.20;99.90;;;;;;5005732;28;20030;-47
2022/11/09 19:18:57;;;;;;;6.50;1.70;;;12.20;99.90;;;;;;5006062;28;20060;-49
2022/11/09 19:21:34;;;;;;;5.15;2.15;;;12.20;99.90;;;;;;5011806;28;20025;-49
2022/11/09 19:24:01;;;;;;;4.68;2.10;;;12.10;99.90;;;;;;5025709;28;20021;-50
2022/11/09 19:26:27;;;;;;;5.53;1.98;;;12.10;99.90;;;;;;5026155;28;20044;-47
2022/11/09 19:28:52;;;;;;;4.40;2.03;;;12.00;99.90;;;;;;5110631;28;20024;-47
2022/11/09 19:31:21;;;;;;;3.55;1.88;;;12.00;99.90;;;;;;5109113;28;20107;-48
2022/11/09 19:33:47;;;;;;;7.45;2.30;;;11.90;99.90;;;;;;5110441;28;20051;-47
2022/11/09 19:36:14;;;;;;;7.95;2.53;;;11.90;99.90;;;;;;5070201;28;20058;-47
2022/11/09 19:38:40;;;;;;;5.45;2.13;;;11.90;99.90;;;;;;5108840;28;20474;-49
2022/11/09 19:41:06;;;;;;;6.30;2.10;;;11.90;99.90;;;;;;5110781;28;20031;-47
2022/11/09 19:43:32;;;;;;;8.50;2.67;;;11.90;99.90;;;;;;5109695;28;20020;-48
2022/11/09 19:45:58;;;;;;;4.45;2.13;;;11.90;99.90;;;;;;5109868;28;20373;-49
2022/11/09 19:48:24;;;;;;;6.90;2.58;;;11.80;99.90;;;;;;5108989;28;20054;-49
2022/11/09 19:50:51;;;;;;;5.75;2.30;;;11.80;99.90;;;;;;5073059;28;20052;-47
2022/11/09 19:53:18;;;;;;;6.72;2.40;;;11.70;99.90;;;;;;5027120;28;20029;-49
2022/11/09 19:55:44;;;;;;;7.50;2.15;;;11.70;99.90;;;;;;5011678;27;20105;-50
2022/11/09 19:58:10;;;;;;;9.02;2.67;;;11.70;99.90;;;;;;5100008;28;20352;-46
2022/11/09 20:00:35;;;;;;;6.25;2.67;;;11.60;99.90;;;;;;5110261;28;20026;-46
2022/11/09 20:03:01;;;;;;;6.95;2.22;;;11.60;99.90;;;;;;5109606;28;20012;-46
2022/11/09 20:05:30;;;;;;;6.22;2.80;;;11.60;99.90;;;;;;5076207;28;20150;-49
2022/11/09 20:07:56;;;;;;;12.55;2.53;;;11.50;99.90;;;;;;5095239;28;20091;-46
2022/11/09 20:10:22;;;;;;;8.32;2.08;;;11.60;99.90;;;;;;5099801;28;20153;-47
2022/11/09 20:12:48;;;;;;;5.50;2.35;;;11.60;99.90;;;;;;5084870;28;20024;-47
2022/11/09 20:15:15;;;;;;;6.30;2.72;;;11.60;99.90;;;;;;5113835;28;20027;-50
2022/11/09 20:17:41;;;;;;;7.45;2.13;;;11.60;99.90;;;;;;5083681;28;20627;-50
2022/11/09 20:20:08;;;;;;;7.38;2.20;;;11.70;99.90;;;;;;5100999;28;20023;-46
2022/11/09 20:22:34;;;;;;;7.22;1.98;;;11.60;99.90;;;;;;5056771;28;20018;-47
2022/11/09 20:25:00;;;;;;;7.75;2.10;;;11.60;99.90;;;;;;5012111;28;20025;-46
2022/11/09 20:27:27;;;;;;;6.78;1.95;;;11.70;99.90;;;;;;5067681;28;20027;-51
2022/11/09 20:29:53;;;;;;;4.53;2.22;;;11.70;99.90;;;;;;5112562;28;20028;-50
2022/11/09 20:32:19;;;;;;;7.63;2.63;;;11.70;99.90;;;;;;5058613;28;20104;-48
2022/11/09 20:34:45;;;;;;;5.38;1.80;;;11.60;99.90;;;;;;5029306;28;20044;-47
2022/11/09 20:37:11;;;;;;;6.97;2.60;;;11.60;99.90;;;;;;5013269;28;20026;-48
2022/11/09 20:39:39;;;;;;;7.40;2.60;;;11.60;99.90;;;;;;5009967;28;20046;-47
2022/11/09 20:42:04;;;;;;;4.68;1.95;;;11.50;99.90;;;;;;5012722;28;20083;-46
2022/11/09 20:44:30;;;;;;;4.22;1.83;;;11.50;99.90;;;;;;5112447;28;20400;-47
2022/11/09 20:46:56;;;;;;;7.28;2.95;;;11.50;99.90;;;;;;5113845;28;20139;-48
2022/11/09 20:49:22;;;;;;;4.65;2.20;;;11.60;99.90;;;;;;5056122;28;20107;-49
2022/11/09 20:51:47;;;;;;;8.15;3.22;;;11.60;99.90;;;;;;5035308;28;20053;-47
2022/11/09 20:54:13;;;;;;;6.13;2.33;;;11.60;99.90;;;;;;5009237;28;20022;-48
2022/11/09 20:56:39;;;;;;;12.40;1.92;;;11.60;99.90;;;;;;5006889;28;20432;-46
2022/11/09 20:59:05;;;;;;;5.82;2.35;;;11.70;99.90;;;;;;5017473;28;20485;-47
2022/11/09 21:01:30;;;;;;;9.48;2.13;;;11.70;99.90;;;;;;5007649;28;20025;-48
2022/11/09 21:03:56;;;;;;;4.60;1.95;;;11.70;99.90;;;;;;5011980;28;20014;-48
2022/11/09 21:06:22;;;;;;;7.47;2.17;;;11.70;99.90;;;;;;5008543;28;20026;-48
2022/11/09 21:08:50;;;;;;;14.45;3.20;;;11.70;99.90;;;;;;5011615;28;20036;-48
2022/11/09 21:11:27;;;;;;;6.97;2.10;;;11.80;99.90;;;;;;5025008;28;20498;-50
2022/11/09 21:13:53;;;;;;;8.82;2.53;;;11.80;99.90;;;;;;5013553;28;20022;-46
2022/11/09 21:16:20;;;;;;;4.50;1.92;;;11.80;99.90;;;;;;5065671;28;20064;-47
2022/11/09 21:18:46;;;;;;;6.00;2.53;;;11.90;99.90;;;;;;5112523;28;20044;-48
2022/11/09 21:21:17;;;;;;;10.18;2.13;;;11.90;99.90;;;;;;5087209;28;20049;-48
2022/11/09 21:32:03;;;;;;;6.95;2.70;;;12.00;99.90;;;;;;5112109;28;20034;-46
2022/11/09 21:34:29;;;;;;;3.95;1.70;;;12.00;99.90;;;;;;5079090;28;20103;-47
2022/11/09 21:36:55;;;;;;;6.00;2.10;;;12.00;99.90;;;;;;5042104;28;20113;-47
2022/11/09 21:39:21;;;;;;;7.65;3.00;;;12.00;99.90;;;;;;5007226;28;20070;-47
2022/11/09 21:41:47;;;;;;;10.73;2.10;;;12.10;99.90;;;;;;5007176;28;20460;-49
2022/11/09 21:44:16;;;;;;;4.72;1.90;;;12.10;99.90;;;;;;5061910;28;20016;-46
2022/11/09 21:46:42;;;;;;;7.38;2.58;;;12.10;99.90;;;;;;5111511;28;20027;-46
2022/11/09 21:49:10;;;;;;;9.45;1.95;;;12.10;99.90;;;;;;5071365;28;20051;-47
2022/11/09 21:51:37;;;;;;;15.48;2.25;;;12.10;99.90;;;;;;5090266;28;20033;-47
2022/11/09 21:54:04;;;;;;;8.30;2.17;;;12.10;99.90;;;;;;5010714;28;20037;-47
2022/11/09 21:56:30;;;;;;;3.63;2.03;;;12.10;99.90;;;;;;5006249;28;20022;-46
2022/11/09 21:58:55;;;;;;;13.52;2.78;;;12.20;99.90;;;;;;5007099;28;20117;-46
2022/11/09 22:01:21;;;;;;;5.38;2.45;;;12.20;99.90;;;;;;5005933;28;20446;-49
2022/11/09 22:03:47;;;;;;;5.18;2.08;;;12.20;99.90;;;;;;5006122;28;20030;-48
2022/11/09 22:06:14;;;;;;;5.80;2.40;;;12.20;99.90;;;;;;5005383;28;20025;-47
2022/11/09 22:08:40;;;;;;;5.90;2.08;;;12.30;99.90;;;;;;5005437;28;20229;-45
2022/11/09 22:11:09;;;;;;;6.07;1.90;;;12.20;99.90;;;;;;5006070;28;20412;-49
2022/11/09 22:16:21;;;;;;;7.90;2.00;;;12.20;99.90;;;;;;5005981;28;20041;-46
2022/11/09 22:21:31;;;;;;;12.30;2.72;;;12.10;99.90;;;;;;5004915;28;20033;-45
2022/11/09 22:24:01;;;;;;;7.15;2.45;;;12.10;99.90;;;;;;5005948;28;20049;-47
2022/11/09 22:26:28;;;;;;;7.05;2.75;;;12.10;99.90;;;;;;5009327;28;20014;-46
2022/11/09 22:28:55;;;;;;;8.48;2.50;;;12.00;99.90;;;;;;5007156;28;20036;-46
2022/11/09 22:31:21;;;;;;;10.77;2.13;;;12.00;99.90;;;;;;5006491;28;20073;-48
2022/11/09 22:33:46;;;;;;;9.10;2.53;;;12.10;99.90;;;;;;5008124;28;20017;-47
2022/11/09 22:36:13;;;;;;;6.32;2.10;;;12.10;99.90;;;;;;5004868;28;20428;-49
2022/11/09 22:38:39;;;;;;;8.70;2.33;;;12.10;99.90;;;;;;5006599;28;20022;-47
2022/11/09 22:41:08;;;;;;;5.63;2.28;;;12.10;99.90;;;;;;5005782;28;20501;-46
2022/11/09 22:43:35;;;;;;;6.82;1.95;;;12.10;99.90;;;;;;5004761;28;20034;-46
2022/11/09 22:46:05;;;;;;;14.07;3.05;;;12.10;99.90;;;;;;5003752;28;20553;-47
2022/11/09 22:48:32;;;;;;;10.13;2.50;;;12.20;99.90;;;;;;5005380;28;20048;-47
2022/11/09 22:50:58;;;;;;;14.88;2.30;;;12.10;99.90;;;;;;5003279;28;20406;-46
2022/11/09 22:53:24;;;;;;;10.30;2.80;;;12.10;99.90;;;;;;5003916;28;20040;-46
2022/11/09 22:55:57;;;;;;;5.72;2.83;;;12.10;99.90;;;;;;5003417;28;20025;-49
2022/11/09 22:58:23;;;;;;;11.50;2.90;;;12.20;99.90;;;;;;5003329;28;20034;-46
2022/11/09 23:00:49;;;;;;;13.27;2.55;;;12.20;99.90;;;;;;5005191;28;20018;-45
2022/11/09 23:03:15;;;;;;;7.90;2.65;;;12.20;99.90;;;;;;5005082;28;20033;-46
2022/11/09 23:05:41;;;;;;;7.95;2.53;;;12.20;99.90;;;;;;5011606;28;20122;-47
2022/11/09 23:08:07;;;;;;;10.07;2.95;;;12.20;99.90;;;;;;5060395;28;20480;-48
2022/11/09 23:10:33;;;;;;;17.30;3.60;;;12.20;99.90;;;;;;5025803;28;20030;-46
2022/11/09 23:12:59;;;;;;;5.78;2.67;;;12.20;99.90;;;;;;5025455;28;20029;-46
2022/11/09 23:15:25;;;;;;;5.85;2.53;;;12.20;99.90;;;;;;5025626;28;20040;-48
2022/11/09 23:20:42;;;;;;;10.88;2.60;;;12.20;99.90;;;;;;5023740;28;20042;-46
2022/11/09 23:23:08;;;;;;;9.18;2.45;;;12.20;99.90;;;;;;5019493;28;20067;-49
2022/11/09 23:25:53;;;;;;;11.10;3.30;;;12.20;99.90;;;;;;5052958;28;20397;-46
2022/11/09 23:28:19;;;;;;;8.50;2.78;;;12.20;99.90;;;;;;5025996;28;20137;-46
2022/11/09 23:30:45;;;;;;;11.82;2.97;;;12.20;99.90;;;;;;5025723;28;20025;-46
2022/11/09 23:33:11;;;;;;;9.32;2.75;;;12.20;99.90;;;;;;5028176;28;20134;-47
2022/11/09 23:35:37;;;;;;;14.38;3.50;;;12.20;99.90;;;;;;5051284;28;20029;-46
2022/11/09 23:38:04;;;;;;;14.05;3.58;;;12.20;99.90;;;;;;5025184;28;20486;-47
2022/11/09 23:40:31;;;;;;;13.15;3.00;;;12.20;99.90;;;;;;5026170;28;20029;-46
2022/11/09 23:43:09;;;;;;;9.07;2.97;;;12.20;99.90;;;;;;5028311;28;20029;-47
2022/11/09 23:45:38;;;;;;;9.70;2.90;;;12.20;99.90;;;;;;5028549;28;20029;-47
2022/11/09 23:48:05;;;;;;;13.55;3.45;;;12.20;99.90;;;;;;5028940;28;20052;-47
2022/11/09 23:50:31;;;;;;;10.80;2.95;;;12.10;99.90;;;;;;5028493;28;20262;-46
2022/11/09 23:52:58;;;;;;;15.90;4.53;;;12.10;99.90;;;;;;5026827;28;20025;-46
2022/11/09 23:55:25;;;;;;;8.48;2.80;;;12.10;99.90;;;;;;5028688;28;20040;-46
2022/11/09 23:57:51;;;;;;;7.32;2.88;;;12.10;99.90;;;;;;5028772;28;20029;-45
